메인 페이지
METAR-TAF:

METAR-TAF

공항 :

Altus Air Force Base

Altus, 오클라호마, 미국

위도: 34-39N, 경도: 099-16W, 고도: 420m

현재 날씨관측

예보는 23분 전, 06:56시(UTC)에 발표되었습니다.
무풍
온도 5°C
습도 48%
기압 1020 hPa
시정: 16.1km
맑음

METAR: KLTS 220656Z 00000KT 10SM CLR 05/M05 A3013 RMK AO2A SLP200 T00531048 $

시각: 02:19 (07:19 UTC)

예보

예보는 6 시간 19분 전, 01:00시(UTC)에 발표되었습니다.
예보 대상 시간: 22일 01시부터 23일 07시까지 (UTC)
여러 방향의 바람 6kt
시정 10km 이상
맑음
전환 중
22일 20시부터 22일 21시까지 (UTC)
남남서10kt, 순간 최대 풍속 15kt
시정 10km 이상
맑음
전환 중
23일 01시부터 23일 02시까지 (UTC)
10kt
시정 10km 이상
맑음

TAF: KLTS 220100Z 2201/2307 VRB06KT 9999 SKC QNH2997INS BECMG 2220/2221 21010G15KT 9999 SKC QNH2996INS BECMG 2301/2302 17010KT 9999 SKC QNH2995INS TX23/2221Z TN04/2212Z

4,000개 이상의 공항 관측 자료 및 예보 (METAR 및 TAF 보고).

지도상에서 검색 가능한 기상관측소가 노란 점과 빨간 점으로 표시되어 있습니다.

기상관측소 명을 보려면 표시 위로 마우스를 이동하세요.

날씨 관측과 예보를 보려면 클릭하세요.

지도 변경 : 확대하려면 엑스 표시가 있는 녹색 버튼, 축소하려면 빼기 표시가 있는 녹색 버튼, 다음 페이지의 지도를 보려면 녹색 화살표를 클릭하세요.


METAR-TAF: